createdAt,value
2018-01-05T00:00:56.372Z,49.30
2018-01-05T00:03:22.648Z,49.70
2018-01-05T00:05:49.545Z,50.10
2018-01-05T00:08:15.882Z,49.20
2018-01-05T00:10:42.117Z,49.60
2018-01-05T00:13:08.449Z,49.50
2018-01-05T00:15:34.680Z,48.90
2018-01-05T00:18:00.964Z,50.60
2018-01-05T00:20:27.250Z,49.50
2018-01-05T00:22:54.452Z,49.00
2018-01-05T00:25:20.741Z,49.00
2018-01-05T00:27:47.685Z,49.10
2018-01-05T00:30:14.932Z,49.20
2018-01-05T00:32:41.173Z,49.70
2018-01-05T00:35:07.363Z,48.40
2018-01-05T00:37:33.708Z,48.10
2018-01-05T00:40:00.676Z,48.20
2018-01-05T00:42:27.612Z,48.30
2018-01-05T00:44:54.064Z,48.30
2018-01-05T00:47:21.279Z,48.60
2018-01-05T00:49:47.497Z,48.50
2018-01-05T00:52:13.691Z,48.20
2018-01-05T00:54:40.085Z,49.60
2018-01-05T00:57:06.573Z,48.40
2018-01-05T00:59:32.930Z,49.30
2018-01-05T01:02:00.182Z,49.00
2018-01-05T01:04:26.461Z,48.40
2018-01-05T01:06:53.412Z,48.90
2018-01-05T01:09:19.599Z,48.90
2018-01-05T01:11:45.893Z,49.40
2018-01-05T01:14:12.830Z,49.50
2018-01-05T01:16:39.048Z,49.50
2018-01-05T01:19:05.428Z,49.50
2018-01-05T01:21:31.672Z,49.40
2018-01-05T01:23:57.957Z,49.30
2018-01-05T01:26:24.432Z,49.40
2018-01-05T01:28:50.660Z,49.40
2018-01-05T01:31:16.919Z,49.80
2018-01-05T01:33:43.391Z,49.00
2018-01-05T01:36:10.529Z,50.00
2018-01-05T01:38:36.945Z,49.10
2018-01-05T01:41:03.193Z,48.90
2018-01-05T01:43:29.532Z,49.30
2018-01-05T01:45:55.738Z,48.90
2018-01-05T01:48:22.722Z,49.50
2018-01-05T01:50:48.992Z,49.40
2018-01-05T01:53:15.212Z,49.70
2018-01-05T01:55:41.537Z,49.70
2018-01-05T01:58:07.774Z,50.10
2018-01-05T02:00:34.063Z,50.50
2018-01-05T02:03:01.145Z,50.70
2018-01-05T02:05:27.354Z,50.60
2018-01-05T02:07:53.636Z,51.50
2018-01-05T02:10:19.849Z,50.50
2018-01-05T02:12:46.592Z,50.80
2018-01-05T02:15:12.958Z,51.50
2018-01-05T02:17:39.187Z,51.30
2018-01-05T02:20:05.817Z,51.20
2018-01-05T02:22:32.210Z,51.70
2018-01-05T02:24:58.467Z,51.60
2018-01-05T02:27:24.692Z,51.90
2018-01-05T02:29:50.990Z,51.10
2018-01-05T02:32:17.192Z,51.40
2018-01-05T02:34:44.197Z,51.20
2018-01-05T02:37:10.364Z,51.10
2018-01-05T02:39:36.709Z,51.10
2018-01-05T02:42:02.913Z,51.40
2018-01-05T02:44:29.182Z,52.00
2018-01-05T02:46:55.594Z,51.00
2018-01-05T02:49:21.805Z,52.00
2018-01-05T02:51:48.012Z,51.20
2018-01-05T02:54:14.898Z,50.70
2018-01-05T02:56:41.098Z,50.40
2018-01-05T02:59:07.300Z,50.90
2018-01-05T03:01:33.616Z,51.00
2018-01-05T03:03:59.789Z,50.80
2018-01-05T03:06:25.996Z,51.10
2018-01-05T03:08:52.353Z,51.20
2018-01-05T03:11:18.589Z,51.00
2018-01-05T03:13:45.529Z,51.10
2018-01-05T03:16:11.784Z,51.00
2018-01-05T03:18:39.030Z,51.90
2018-01-05T03:21:05.296Z,52.00
2018-01-05T03:23:32.293Z,52.40
2018-01-05T03:25:58.733Z,52.40
2018-01-05T03:28:25.031Z,52.10
2018-01-05T03:30:51.246Z,52.50
2018-01-05T03:33:17.532Z,52.50
2018-01-05T03:35:43.747Z,52.50
2018-01-05T03:38:09.917Z,52.50
2018-01-05T03:40:36.478Z,52.50
2018-01-05T03:43:02.725Z,53.00
2018-01-05T03:45:28.921Z,53.30
2018-01-05T03:47:55.161Z,53.60
2018-01-05T03:50:21.530Z,53.30
2018-01-05T03:52:53.186Z,54.00
2018-01-05T03:55:20.317Z,54.70
2018-01-05T03:57:46.522Z,54.70
2018-01-05T04:00:12.720Z,55.20
2018-01-05T04:02:42.530Z,54.60
2018-01-05T04:05:09.251Z,55.50
2018-01-05T04:07:36.450Z,55.30
2018-01-05T04:10:02.698Z,56.40
2018-01-05T04:12:29.672Z,57.10
2018-01-05T04:14:56.612Z,56.60
2018-01-05T04:17:23.008Z,56.50
2018-01-05T04:19:49.200Z,56.70
2018-01-05T04:22:15.432Z,56.90
2018-01-05T04:24:41.958Z,57.10
2018-01-05T04:27:08.150Z,57.40
2018-01-05T04:29:35.240Z,57.50
2018-01-05T04:32:01.484Z,57.40
2018-01-05T04:34:27.810Z,56.80
2018-01-05T04:36:54.137Z,57.00
2018-01-05T04:39:21.103Z,57.30
2018-01-05T04:41:47.358Z,57.30
2018-01-05T04:44:13.567Z,57.30
2018-01-05T04:46:40.493Z,57.10
2018-01-05T04:49:06.766Z,57.10
2018-01-05T04:51:33.005Z,57.50
2018-01-05T04:53:59.989Z,58.00
2018-01-05T04:56:26.174Z,58.00
2018-01-05T04:58:52.546Z,57.80
2018-01-05T05:01:18.734Z,58.50
2018-01-05T05:03:44.976Z,58.90
2018-01-05T05:06:11.220Z,58.90
2018-01-05T05:08:39.285Z,59.00
2018-01-05T05:11:05.499Z,59.00
2018-01-05T05:13:32.467Z,59.20
2018-01-05T05:15:58.796Z,59.10
2018-01-05T05:18:25.016Z,58.70
2018-01-05T05:20:51.256Z,59.20
2018-01-05T05:23:17.493Z,59.10
2018-01-05T05:25:43.697Z,59.40
2018-01-05T05:28:09.877Z,59.60
2018-01-05T05:30:36.268Z,59.40
2018-01-05T05:33:06.381Z,59.80
2018-01-05T05:35:32.882Z,59.80
2018-01-05T05:37:59.110Z,59.70
2018-01-05T05:40:25.366Z,59.60
2018-01-05T05:42:51.730Z,59.70
2018-01-05T05:45:18.001Z,60.20
2018-01-05T05:47:44.933Z,61.30
2018-01-05T05:50:11.171Z,60.60
2018-01-05T05:52:37.380Z,60.50
2018-01-05T05:55:04.030Z,60.80
2018-01-05T05:57:30.200Z,61.00
2018-01-05T05:59:56.409Z,61.00
2018-01-05T06:02:23.519Z,61.10
2018-01-05T06:04:49.773Z,61.10
2018-01-05T06:07:16.151Z,60.60
2018-01-05T06:09:42.386Z,61.00
2018-01-05T06:12:08.604Z,61.10
2018-01-05T06:14:35.724Z,61.00
2018-01-05T06:17:01.977Z,61.00
2018-01-05T06:19:28.264Z,61.10
2018-01-05T06:21:54.448Z,62.10
2018-01-05T06:24:20.640Z,63.10
2018-01-05T06:26:46.879Z,63.10
2018-01-05T06:29:15.824Z,63.10
2018-01-05T06:31:42.034Z,63.10
2018-01-05T06:34:08.366Z,63.10
2018-01-05T06:36:34.701Z,63.20
2018-01-05T06:39:02.706Z,63.20
2018-01-05T06:41:29.012Z,63.20
2018-01-05T06:43:55.194Z,63.20
2018-01-05T06:46:21.383Z,63.20
2018-01-05T06:48:47.571Z,62.90
2018-01-05T06:51:13.753Z,63.30
2018-01-05T06:53:39.943Z,63.20
2018-01-05T06:56:06.210Z,63.30
2018-01-05T06:58:32.425Z,63.30
2018-01-05T07:00:58.616Z,63.10
2018-01-05T07:03:24.817Z,63.00
2018-01-05T07:05:51.022Z,63.10
2018-01-05T07:08:17.967Z,62.60
2018-01-05T07:10:44.164Z,63.40
2018-01-05T07:13:11.477Z,62.10
2018-01-05T07:15:37.660Z,62.90
2018-01-05T07:18:03.869Z,63.10
2018-01-05T07:20:30.811Z,62.40
2018-01-05T07:22:56.994Z,62.40
2018-01-05T07:25:23.177Z,62.80
2018-01-05T07:27:49.344Z,63.20
2018-01-05T07:30:15.563Z,62.80
2018-01-05T07:32:41.748Z,63.40
2018-01-05T07:35:08.670Z,62.90
2018-01-05T07:37:34.975Z,62.80
2018-01-05T07:40:01.164Z,62.80
2018-01-05T07:42:27.390Z,62.50
2018-01-05T07:44:53.710Z,62.50
2018-01-05T07:47:19.883Z,62.70
2018-01-05T07:49:46.051Z,62.10
2018-01-05T07:52:12.554Z,62.00
2018-01-05T07:54:39.097Z,62.60
2018-01-05T07:57:05.276Z,62.40
2018-01-05T07:59:32.176Z,62.30
2018-01-05T08:01:59.882Z,62.30
2018-01-05T08:04:26.050Z,62.20
2018-01-05T08:06:52.239Z,62.30
2018-01-05T08:09:18.558Z,61.80
2018-01-05T08:11:45.596Z,62.00
2018-01-05T08:14:11.764Z,62.00
2018-01-05T08:16:38.700Z,61.70
2018-01-05T08:19:05.128Z,61.70
2018-01-05T08:21:31.411Z,61.40
2018-01-05T08:23:58.690Z,61.70
2018-01-05T08:26:25.067Z,61.40
2018-01-05T08:28:51.260Z,61.40
2018-01-05T08:31:18.182Z,61.90
2018-01-05T08:33:44.364Z,61.90
2018-01-05T08:36:10.771Z,62.10
2018-01-05T08:38:36.952Z,61.80
2018-01-05T08:41:03.120Z,62.30
2018-01-05T08:43:29.602Z,61.80
2018-01-05T08:45:55.775Z,62.00
2018-01-05T08:48:21.963Z,61.90
2018-01-05T08:50:48.416Z,61.70
2018-01-05T08:53:14.604Z,61.70
2018-01-05T08:55:40.773Z,62.10
2018-01-05T08:58:07.155Z,61.50
2018-01-05T09:00:33.446Z,61.80
2018-01-05T09:02:59.640Z,62.20
2018-01-05T09:05:25.940Z,62.10
2018-01-05T09:07:52.100Z,62.40
2018-01-05T09:10:18.297Z,62.40
2018-01-05T09:12:44.617Z,62.00
2018-01-05T09:15:10.825Z,63.30
2018-01-05T09:17:37.028Z,62.00
2018-01-05T09:20:03.501Z,62.50
2018-01-05T09:22:29.660Z,62.70
2018-01-05T09:24:55.869Z,62.20
2018-01-05T09:27:22.088Z,62.10
2018-01-05T09:29:48.280Z,62.20
2018-01-05T09:32:14.452Z,61.70
2018-01-05T09:34:41.477Z,60.90
2018-01-05T09:37:07.643Z,60.90
2018-01-05T09:39:34.619Z,61.50
2018-01-05T09:42:00.926Z,61.40
2018-01-05T09:44:27.178Z,61.10
2018-01-05T09:46:53.352Z,60.70
2018-01-05T09:49:19.526Z,60.80
2018-01-05T09:51:46.660Z,61.00
2018-01-05T09:54:12.968Z,60.90
2018-01-05T09:56:39.164Z,60.80
2018-01-05T09:59:05.384Z,60.20
2018-01-05T10:01:32.377Z,61.20
2018-01-05T10:03:58.564Z,61.10
2018-01-05T10:06:24.873Z,61.00
2018-01-05T10:08:51.000Z,61.10
2018-01-05T10:11:17.287Z,61.90
2018-01-05T10:13:43.558Z,62.90
2018-01-05T10:16:09.817Z,62.80
2018-01-05T10:18:36.014Z,63.60
2018-01-05T10:21:02.177Z,65.40
2018-01-05T10:23:28.405Z,66.00
2018-01-05T10:25:54.621Z,67.70
2018-01-05T10:28:21.652Z,70.10
2018-01-05T10:30:51.294Z,70.10
2018-01-05T10:33:17.659Z,71.60
2018-01-05T10:35:43.944Z,72.40
2018-01-05T10:38:10.157Z,73.70
2018-01-05T10:40:36.366Z,74.40
2018-01-05T10:43:03.530Z,76.00
2018-01-05T10:45:30.446Z,76.70
2018-01-05T10:47:57.380Z,77.20
2018-01-05T10:50:23.657Z,77.20
2018-01-05T10:52:49.861Z,76.40
2018-01-05T10:55:16.036Z,75.90
2018-01-05T10:57:42.237Z,77.50
2018-01-05T11:00:08.546Z,77.60
2018-01-05T11:02:34.723Z,77.40
2018-01-05T11:05:00.944Z,78.20
2018-01-05T11:07:27.128Z,78.20
2018-01-05T11:09:53.349Z,78.40
2018-01-05T11:12:19.532Z,78.60
2018-01-05T11:14:45.732Z,78.60
2018-01-05T11:17:11.904Z,78.20
2018-01-05T11:19:38.093Z,78.60
2018-01-05T11:22:04.346Z,77.60
2018-01-05T11:24:30.526Z,77.40
2018-01-05T11:26:56.716Z,77.50
2018-01-05T11:29:22.995Z,78.20
2018-01-05T11:31:49.181Z,77.80
2018-01-05T11:34:16.084Z,77.40
2018-01-05T11:36:42.450Z,77.40
2018-01-05T11:39:08.713Z,77.60
2018-01-05T11:41:35.628Z,78.00
2018-01-05T11:44:02.051Z,77.90
2018-01-05T11:46:28.231Z,77.90
2018-01-05T11:48:54.383Z,77.20
2018-01-05T11:51:20.648Z,77.20
2018-01-05T11:53:46.812Z,77.50
2018-01-05T11:56:13.092Z,77.00
2018-01-05T11:58:39.554Z,77.20
2018-01-05T12:01:05.739Z,77.60
2018-01-05T12:03:31.956Z,76.80
2018-01-05T12:05:58.126Z,76.30
2018-01-05T12:08:24.321Z,76.10
2018-01-05T12:10:50.496Z,75.30
2018-01-05T12:13:18.668Z,76.20
2018-01-05T12:15:45.053Z,75.90
2018-01-05T12:18:11.277Z,76.20
2018-01-05T12:20:37.488Z,75.90
2018-01-05T12:23:03.753Z,75.50
2018-01-05T12:25:30.758Z,75.10
2018-01-05T12:27:56.984Z,75.10
2018-01-05T12:30:23.160Z,75.30
2018-01-05T12:32:49.577Z,74.70
2018-01-05T12:35:15.805Z,75.00
2018-01-05T12:37:41.974Z,75.30
2018-01-05T12:40:08.324Z,74.70
2018-01-05T12:42:34.516Z,74.80
2018-01-05T12:45:00.717Z,75.50
2018-01-05T12:47:27.020Z,75.00
2018-01-05T12:49:53.232Z,75.10
2018-01-05T12:52:20.164Z,74.50
2018-01-05T12:54:46.520Z,74.60
2018-01-05T12:57:12.729Z,75.20
2018-01-05T12:59:39.207Z,74.80
2018-01-05T13:02:05.707Z,74.80
2018-01-05T13:04:39.162Z,74.80
2018-01-05T13:07:06.140Z,75.00
2018-01-05T13:09:32.330Z,75.00
2018-01-05T13:11:58.664Z,74.80
2018-01-05T13:14:24.847Z,74.90
2018-01-05T13:16:51.777Z,74.80
2018-01-05T13:19:18.170Z,74.80
2018-01-05T13:21:44.363Z,74.50
2018-01-05T13:24:10.538Z,75.30
2018-01-05T13:26:37.460Z,74.70
2018-01-05T13:29:03.654Z,74.60
2018-01-05T13:31:29.837Z,74.70
2018-01-05T13:33:56.102Z,74.80
2018-01-05T13:36:22.265Z,74.50
2018-01-05T13:38:48.464Z,75.20
2018-01-05T13:41:14.798Z,74.20
2018-01-05T13:43:40.971Z,74.40
2018-01-05T13:46:07.868Z,75.30
2018-01-05T13:48:34.079Z,74.50
2018-01-05T13:51:00.491Z,74.50
2018-01-05T13:53:26.689Z,74.70
2018-01-05T13:55:52.848Z,74.80
2018-01-05T13:58:19.132Z,74.10
2018-01-05T14:00:45.340Z,74.20
2018-01-05T14:03:11.509Z,74.80
2018-01-05T14:05:37.901Z,74.40
2018-01-05T14:08:04.124Z,74.70
2018-01-05T14:10:30.284Z,74.40
2018-01-05T14:12:56.540Z,73.90
2018-01-05T14:15:22.735Z,74.50
2018-01-05T14:17:49.815Z,75.60
2018-01-05T14:20:16.132Z,75.60
2018-01-05T14:22:42.293Z,76.40
2018-01-05T14:25:08.483Z,76.60
2018-01-05T14:27:35.010Z,77.10
2018-01-05T14:30:01.206Z,77.00
2018-01-05T14:32:28.135Z,77.20
2018-01-05T14:34:54.325Z,77.20
2018-01-05T14:37:20.468Z,77.60
2018-01-05T14:39:46.725Z,77.50
2018-01-05T14:42:13.013Z,77.20
2018-01-05T14:44:39.212Z,76.70
2018-01-05T14:47:05.363Z,76.80
2018-01-05T14:49:31.625Z,76.70
2018-01-05T14:51:57.815Z,77.10
2018-01-05T14:54:23.992Z,77.20
2018-01-05T14:56:51.041Z,76.20
2018-01-05T14:59:17.279Z,76.90
2018-01-05T15:01:44.154Z,76.60
2018-01-05T15:04:10.342Z,77.20
2018-01-05T15:06:36.742Z,78.00
2018-01-05T15:09:03.060Z,78.00
2018-01-05T15:11:29.245Z,78.00
2018-01-05T15:13:56.385Z,78.10
2018-01-05T15:16:22.604Z,78.00
2018-01-05T15:18:48.827Z,78.00
2018-01-05T15:21:15.241Z,78.00
2018-01-05T15:23:42.299Z,77.60
2018-01-05T15:26:08.468Z,78.40
2018-01-05T15:28:34.666Z,77.80
2018-01-05T15:31:00.957Z,77.40
2018-01-05T15:33:27.163Z,78.70
2018-01-05T15:35:54.068Z,78.00
2018-01-05T15:38:21.419Z,78.00
2018-01-05T15:40:47.736Z,78.00
2018-01-05T15:43:14.660Z,78.90
2018-01-05T15:45:40.845Z,78.90
2018-01-05T15:48:07.359Z,79.10
2018-01-05T15:50:33.544Z,79.40
2018-01-05T15:52:59.731Z,79.90
2018-01-05T15:55:26.068Z,80.10
2018-01-05T15:57:52.273Z,80.20
2018-01-05T16:00:18.457Z,80.40
2018-01-05T16:02:44.804Z,80.40
2018-01-05T16:05:11.039Z,78.70
2018-01-05T16:07:37.216Z,79.30
2018-01-05T16:10:03.628Z,79.10
2018-01-05T16:12:29.800Z,78.40
2018-01-05T16:14:56.817Z,78.20
2018-01-05T16:17:23.006Z,78.20
2018-01-05T16:19:49.275Z,78.50
2018-01-05T16:22:15.440Z,77.70
2018-01-05T16:24:41.628Z,77.70
2018-01-05T16:27:07.820Z,77.70
2018-01-05T16:29:34.783Z,77.70
2018-01-05T16:32:00.956Z,77.60
2018-01-05T16:34:27.919Z,78.40
2018-01-05T16:36:54.077Z,78.40
2018-01-05T16:39:20.246Z,78.50
2018-01-05T16:41:46.525Z,78.60
2018-01-05T16:44:17.272Z,78.70
2018-01-05T16:46:44.478Z,78.60
2018-01-05T16:49:10.650Z,78.60
2018-01-05T16:51:36.853Z,78.70
2018-01-05T16:54:03.074Z,78.50
2018-01-05T16:56:29.271Z,78.30
2018-01-05T16:58:55.425Z,78.40
2018-01-05T17:01:21.732Z,78.30
2018-01-05T17:03:47.905Z,77.50
2018-01-05T17:06:14.080Z,78.20
2018-01-05T17:08:40.312Z,77.50
2018-01-05T17:11:06.452Z,77.50
2018-01-05T17:13:33.740Z,77.50
2018-01-05T17:15:59.897Z,77.50
2018-01-05T17:18:26.222Z,77.10
2018-01-05T17:20:52.396Z,76.90
2018-01-05T17:23:18.590Z,76.80
2018-01-05T17:25:45.797Z,76.50
2018-01-05T17:28:12.005Z,76.50
2018-01-05T17:30:38.201Z,76.50
2018-01-05T17:33:04.633Z,76.50
2018-01-05T17:35:30.804Z,76.10
2018-01-05T17:37:57.703Z,76.20
2018-01-05T17:40:24.989Z,76.10
2018-01-05T17:42:51.266Z,76.30
2018-01-05T17:45:18.170Z,76.50
2018-01-05T17:47:44.336Z,76.40
2018-01-05T17:50:10.568Z,76.90
2018-01-05T17:52:36.746Z,76.60
2018-01-05T17:55:03.680Z,76.80
2018-01-05T17:57:29.880Z,76.80
2018-01-05T17:59:56.162Z,77.20
2018-01-05T18:02:23.125Z,77.30
2018-01-05T18:04:49.342Z,77.30
2018-01-05T18:07:15.688Z,78.30
2018-01-05T18:09:41.992Z,77.50
2018-01-05T18:12:08.178Z,77.50
2018-01-05T18:14:34.597Z,77.50
2018-01-05T18:17:00.823Z,77.80
2018-01-05T18:19:27.008Z,78.00
2018-01-05T18:21:53.369Z,78.40
2018-01-05T18:24:20.288Z,78.80
2018-01-05T18:26:46.489Z,78.80
2018-01-05T18:29:15.833Z,78.80
2018-01-05T18:31:42.096Z,79.00
2018-01-05T18:34:08.480Z,79.10
2018-01-05T18:36:35.395Z,79.50
2018-01-05T18:39:02.734Z,79.50
2018-01-05T18:41:28.899Z,79.30
2018-01-05T18:43:55.238Z,79.30
2018-01-05T18:46:21.443Z,79.30
2018-01-05T18:48:47.598Z,79.20
2018-01-05T18:51:15.176Z,79.20
2018-01-05T18:53:41.342Z,79.10
2018-01-05T18:56:07.536Z,78.90
2018-01-05T18:58:33.919Z,79.20
2018-01-05T19:01:00.232Z,79.20
2018-01-05T19:03:26.433Z,79.00
2018-01-05T19:05:53.367Z,79.30
2018-01-05T19:08:19.620Z,79.30
2018-01-05T19:10:45.804Z,79.50
2018-01-05T19:13:12.044Z,79.60
2018-01-05T19:15:38.232Z,79.70
2018-01-05T19:18:04.567Z,79.50
2018-01-05T19:20:31.790Z,79.60
2018-01-05T19:22:58.133Z,79.40
2018-01-05T19:25:25.081Z,79.40
2018-01-05T19:27:52.044Z,79.30
2018-01-05T19:30:18.254Z,79.30
2018-01-05T19:32:44.587Z,79.00
2018-01-05T19:35:10.835Z,79.00
2018-01-05T19:37:37.036Z,79.10
2018-01-05T19:40:04.223Z,79.00
2018-01-05T19:42:37.865Z,79.00
2018-01-05T19:45:04.068Z,79.00
2018-01-05T19:47:30.465Z,78.90
2018-01-05T19:49:57.571Z,78.90
2018-01-05T19:52:23.748Z,78.90
2018-01-05T19:54:50.004Z,78.90
2018-01-05T19:57:16.428Z,79.00
2018-01-05T19:59:45.047Z,79.20
2018-01-05T20:02:12.738Z,78.90
2018-01-05T20:04:38.966Z,78.90
2018-01-05T20:07:06.510Z,78.90
2018-01-05T20:09:32.960Z,78.90
2018-01-05T20:11:59.202Z,78.90
2018-01-05T20:14:25.431Z,79.60
2018-01-05T20:16:51.829Z,78.60
2018-01-05T20:19:18.066Z,78.40
2018-01-05T20:21:44.258Z,78.40
2018-01-05T20:24:10.579Z,78.50
2018-01-05T20:26:36.854Z,78.30
2018-01-05T20:29:03.021Z,78.10
2018-01-05T20:31:30.686Z,77.80
2018-01-05T20:33:56.980Z,77.90
2018-01-05T20:36:23.172Z,78.10
2018-01-05T20:38:50.108Z,77.90
2018-01-05T20:41:16.602Z,77.90
2018-01-05T20:43:44.027Z,77.50
2018-01-05T20:46:10.252Z,77.50
2018-01-05T20:48:36.627Z,77.60
2018-01-05T20:51:03.053Z,77.50
2018-01-05T20:53:29.236Z,77.60
2018-01-05T20:55:55.872Z,77.50
2018-01-05T20:58:22.125Z,76.50
2018-01-05T21:00:48.408Z,76.60
2018-01-05T21:03:14.595Z,76.80
2018-01-05T21:05:41.040Z,76.60
2018-01-05T21:08:07.232Z,76.20
2018-01-05T21:10:33.408Z,76.30
2018-01-05T21:13:00.336Z,75.80
2018-01-05T21:15:26.519Z,75.80
2018-01-05T21:17:52.711Z,76.20
2018-01-05T21:20:18.923Z,76.10
2018-01-05T21:22:45.121Z,76.10
2018-01-05T21:25:11.340Z,75.70
2018-01-05T21:27:37.517Z,75.50
2018-01-05T21:30:03.897Z,74.60
2018-01-05T21:32:30.100Z,75.30
2018-01-05T21:34:57.046Z,75.00
2018-01-05T21:37:24.169Z,74.80
2018-01-05T21:39:50.463Z,74.80
2018-01-05T21:42:16.700Z,74.90
2018-01-05T21:44:42.970Z,74.40
2018-01-05T21:47:09.205Z,75.00
2018-01-05T21:49:35.409Z,74.60
2018-01-05T21:52:01.668Z,74.20
2018-01-05T21:54:28.848Z,74.70
2018-01-05T21:56:55.128Z,74.70
2018-01-05T21:59:21.306Z,75.10
2018-01-05T22:01:47.731Z,75.30
2018-01-05T22:04:14.080Z,75.00
2018-01-05T22:06:40.322Z,75.40
2018-01-05T22:09:06.607Z,75.40
2018-01-05T22:11:33.520Z,75.40
2018-01-05T22:13:59.687Z,75.40
2018-01-05T22:16:26.011Z,75.70
2018-01-05T22:18:52.220Z,75.80
2018-01-05T22:21:18.427Z,75.80
2018-01-05T22:23:44.816Z,76.20
2018-01-05T22:26:10.981Z,76.00
2018-01-05T22:28:37.184Z,76.20
2018-01-05T22:31:03.520Z,76.00
2018-01-05T22:33:29.732Z,76.20
2018-01-05T22:35:55.978Z,76.40
2018-01-05T22:38:22.910Z,76.50
2018-01-05T22:40:49.424Z,76.50
2018-01-05T22:43:15.637Z,75.80
2018-01-05T22:45:41.809Z,76.60
2018-01-05T22:48:08.210Z,76.50
2018-01-05T22:50:34.455Z,76.50
2018-01-05T22:53:01.459Z,76.80
2018-01-05T22:55:27.893Z,76.80
2018-01-05T22:57:54.129Z,76.80
2018-01-05T23:00:20.339Z,76.40
2018-01-05T23:02:47.438Z,76.70
2018-01-05T23:05:13.888Z,76.50
2018-01-05T23:07:40.067Z,76.50
2018-01-05T23:10:06.872Z,76.40
2018-01-05T23:12:33.119Z,76.40
2018-01-05T23:14:59.669Z,76.20
2018-01-05T23:17:25.890Z,76.50
2018-01-05T23:19:52.335Z,76.20
2018-01-05T23:22:18.612Z,76.40
2018-01-05T23:24:44.896Z,76.50
2018-01-05T23:27:11.239Z,76.40
2018-01-05T23:29:37.735Z,76.60
2018-01-05T23:32:03.993Z,76.60
2018-01-05T23:34:30.217Z,76.60
2018-01-05T23:36:56.466Z,76.50
2018-01-05T23:39:22.674Z,76.90
2018-01-05T23:41:49.040Z,76.50
2018-01-05T23:44:15.241Z,76.40
2018-01-05T23:46:42.180Z,76.30
2018-01-05T23:49:08.361Z,76.30
2018-01-05T23:51:34.690Z,76.50
2018-01-05T23:54:02.696Z,76.20
2018-01-05T23:56:28.904Z,76.20
2018-01-05T23:58:55.696Z,76.40
